Terminal Aerodrome Forecast
Issued by NWS Topeka, KS

Home | Current Version | Previous Version | Text Only | Print | Product List | Glossary Off
Versions: 1 2 3 4 5 6 7 8 9 10 11 12

000
FTUS43 KTOP 191100
TAFTOP
TAF
KTOP 191125Z 1912/2012 16001KT P6SM MIFG FEW250
      TEMPO 1912/1913 5SM BR
     FM191400 18010KT P6SM SCT060
     FM200100 15005KT P6SM SCT120=

USA.gov is the U.S. government's official web portal to all federal, state and local government web resources and services.